X  Close Metar Aviation Weather Data        KDWH George Bush Intercontinental Airport
Temperature
80°F Temperature
73°F Dewpoint
79% Humidity



Wind
0 MPH
0 KM/H
0 M/S
0 KTS



Calm
N
Current Conditions

Clear Clear
Pressure 1014 (hPa) - 29.93 (inHg)
Visibility 10 (mile) - 16 (km)
Airport
Airport-code KDWH

Location: George Bush Intercontinental Airport
Distance: 12 (mi)

Metar:
METAR KDWH 160653Z AUTO 00000KT 10SM CLR 27/23 A2994 RMK AO2 SLP135 T02670228

Time: 08-16-2022 01:53 CDT